createdAt,value
2022-10-17T00:01:09.605Z,97843.13
2022-10-17T00:03:39.146Z,97849.63
2022-10-17T00:06:09.270Z,97852.66
2022-10-17T00:08:38.357Z,97856.22
2022-10-17T00:11:09.154Z,97854.31
2022-10-17T00:13:37.536Z,97850.06
2022-10-17T00:16:06.225Z,97848.13
2022-10-17T00:18:36.309Z,97853.25
2022-10-17T00:21:05.168Z,97847.69
2022-10-17T00:23:34.993Z,97856.63
2022-10-17T00:26:05.277Z,97850.56
2022-10-17T00:28:34.325Z,97868.81
2022-10-17T00:31:27.470Z,97868.09
2022-10-17T00:33:57.020Z,97866.47
2022-10-17T00:36:27.029Z,97864.50
2022-10-17T00:38:57.323Z,97855.56
2022-10-17T00:41:27.344Z,97856.69
2022-10-17T00:43:59.367Z,97862.88
2022-10-17T00:46:30.320Z,97851.41
2022-10-17T00:49:03.964Z,97858.59
2022-10-17T00:51:38.626Z,97851.25
2022-10-17T00:54:08.029Z,97852.00
2022-10-17T00:56:37.020Z,97850.59
2022-10-17T01:01:40.064Z,97855.22
2022-10-17T01:04:09.905Z,97857.56
2022-10-17T01:06:40.946Z,97865.16
2022-10-17T01:09:09.459Z,97868.75
2022-10-17T01:11:47.538Z,97870.88
2022-10-17T01:14:29.522Z,97869.13
2022-10-17T01:17:08.448Z,97863.47
2022-10-17T01:19:57.505Z,97870.75
2022-10-17T01:22:29.432Z,97860.22
2022-10-17T01:25:24.986Z,97870.38
2022-10-17T01:28:20.006Z,97863.72
2022-10-17T01:31:15.883Z,97862.56
2022-10-17T01:33:54.533Z,97859.47
2022-10-17T01:36:34.268Z,97861.31
2022-10-17T01:39:11.856Z,97861.16
2022-10-17T01:41:45.817Z,97861.00
2022-10-17T01:44:19.095Z,97860.06
2022-10-17T01:46:52.485Z,97861.34
2022-10-17T01:49:25.793Z,97860.47
2022-10-17T01:51:58.754Z,97865.50
2022-10-17T01:54:31.845Z,97862.78
2022-10-17T01:57:03.008Z,97857.91
2022-10-17T01:59:39.382Z,97852.16
2022-10-17T02:02:10.589Z,97854.41
2022-10-17T02:04:38.764Z,97857.22
2022-10-17T02:07:10.798Z,97856.47
2022-10-17T02:09:39.618Z,97858.84
2022-10-17T02:12:28.853Z,97863.66
2022-10-17T02:15:11.529Z,97866.88
2022-10-17T02:17:49.516Z,97863.16
2022-10-17T02:20:24.844Z,97869.97
2022-10-17T02:22:58.506Z,97866.41
2022-10-17T02:25:36.617Z,97868.03
2022-10-17T02:28:15.140Z,97862.84
2022-10-17T02:31:11.497Z,97864.94
2022-10-17T02:33:45.940Z,97863.78
2022-10-17T02:36:20.276Z,97861.94
2022-10-17T02:38:50.056Z,97861.50
2022-10-17T02:41:20.497Z,97865.72
2022-10-17T02:43:50.797Z,97861.16
2022-10-17T02:46:23.018Z,97862.44
2022-10-17T02:48:55.890Z,97850.41
2022-10-17T02:51:31.196Z,97857.78
2022-10-17T02:54:06.141Z,97856.03
2022-10-17T02:56:42.389Z,97862.56
2022-10-17T02:59:16.595Z,97858.94
2022-10-17T03:01:45.276Z,97866.19
2022-10-17T03:04:16.077Z,97864.34
2022-10-17T03:06:44.438Z,97860.09
2022-10-17T03:09:12.420Z,97858.88
2022-10-17T03:11:42.133Z,97860.00
2022-10-17T03:14:10.916Z,97858.97
2022-10-17T03:16:38.946Z,97860.22
2022-10-17T03:19:07.793Z,97861.78
2022-10-17T03:21:38.167Z,97856.97
2022-10-17T03:24:08.651Z,97866.19
2022-10-17T03:26:37.159Z,97860.88
2022-10-17T03:29:06.099Z,97868.34
2022-10-17T03:31:35.605Z,97869.56
2022-10-17T03:34:05.414Z,97864.13
2022-10-17T03:36:33.673Z,97863.34
2022-10-17T03:39:04.193Z,97869.84
2022-10-17T03:41:32.691Z,97865.16
2022-10-17T03:44:00.740Z,97864.47
2022-10-17T03:46:29.250Z,97866.16
2022-10-17T03:48:59.411Z,97861.22
2022-10-17T03:51:27.770Z,97861.19
2022-10-17T03:54:03.927Z,97869.31
2022-10-17T03:56:31.967Z,97868.28
2022-10-17T03:59:05.997Z,97870.47
2022-10-17T04:01:36.733Z,97874.63
2022-10-17T04:04:05.187Z,97874.28
2022-10-17T04:06:36.909Z,97880.34
2022-10-17T04:09:07.929Z,97880.28
2022-10-17T04:11:43.227Z,97884.78
2022-10-17T04:14:12.054Z,97882.72
2022-10-17T04:16:40.947Z,97899.94
2022-10-17T04:19:15.021Z,97895.31
2022-10-17T04:21:47.129Z,97894.25
2022-10-17T04:24:17.540Z,97904.97
2022-10-17T04:27:04.938Z,97907.66
2022-10-17T04:29:35.404Z,97901.66
2022-10-17T04:32:25.943Z,97894.22
2022-10-17T04:35:04.432Z,97901.78
2022-10-17T04:37:32.704Z,97910.75
2022-10-17T04:40:09.996Z,97902.22
2022-10-17T04:42:39.185Z,97904.50
2022-10-17T04:45:08.840Z,97910.78
2022-10-17T04:47:37.831Z,97912.44
2022-10-17T04:50:07.403Z,97911.97
2022-10-17T04:52:38.195Z,97915.00
2022-10-17T04:55:09.276Z,97918.59
2022-10-17T04:57:37.481Z,97920.09
2022-10-17T05:00:19.048Z,97925.34
2022-10-17T05:02:49.576Z,97933.50
2022-10-17T05:05:17.756Z,97929.59
2022-10-17T05:07:48.025Z,97936.78
2022-10-17T05:10:21.333Z,97929.09
2022-10-17T05:12:52.114Z,97931.41
2022-10-17T05:15:23.492Z,97927.06
2022-10-17T05:17:56.332Z,97922.88
2022-10-17T05:20:25.898Z,97927.97
2022-10-17T05:22:54.729Z,97933.28
2022-10-17T05:25:24.425Z,97926.09
2022-10-17T05:27:52.792Z,97930.59
2022-10-17T05:30:21.482Z,97932.78
2022-10-17T05:32:55.651Z,97938.09
2022-10-17T05:35:24.193Z,97944.53
2022-10-17T05:37:53.621Z,97943.50
2022-10-17T05:40:25.141Z,97945.75
2022-10-17T05:42:55.229Z,97942.38
2022-10-17T05:45:24.829Z,97943.06
2022-10-17T05:47:53.197Z,97937.97
2022-10-17T05:50:24.022Z,97938.66
2022-10-17T05:53:15.461Z,97942.09
2022-10-17T05:55:56.946Z,97945.78
2022-10-17T05:58:45.593Z,97947.81
2022-10-17T06:01:25.821Z,97951.03
2022-10-17T06:03:54.583Z,97954.44
2022-10-17T06:06:22.816Z,97955.19
2022-10-17T06:08:52.210Z,97962.06
2022-10-17T06:11:28.180Z,97961.97
2022-10-17T06:13:56.303Z,97965.81
2022-10-17T06:16:26.664Z,97963.13
2022-10-17T06:18:54.683Z,97965.69
2022-10-17T06:21:24.827Z,97976.97
2022-10-17T06:23:55.587Z,97975.88
2022-10-17T06:26:32.558Z,97972.94
2022-10-17T06:29:00.631Z,97974.34
2022-10-17T06:31:33.204Z,97977.91
2022-10-17T06:34:02.281Z,97975.84
2022-10-17T06:36:31.232Z,97980.13
2022-10-17T06:38:59.318Z,97983.13
2022-10-17T06:41:41.093Z,97980.22
2022-10-17T06:44:11.309Z,97987.56
2022-10-17T06:46:58.548Z,97986.25
2022-10-17T06:49:27.999Z,97984.59
2022-10-17T06:52:19.471Z,97985.72
2022-10-17T06:55:00.838Z,97997.53
2022-10-17T06:57:41.544Z,97998.09
2022-10-17T07:00:42.097Z,98001.56
2022-10-17T07:03:12.203Z,97988.56
2022-10-17T07:05:40.302Z,97995.25
2022-10-17T07:08:09.295Z,98000.44
2022-10-17T07:10:40.003Z,97996.56
2022-10-17T07:13:10.854Z,97998.16
2022-10-17T07:15:39.673Z,98003.94
2022-10-17T07:18:08.031Z,97997.56
2022-10-17T07:20:36.596Z,98005.84
2022-10-17T07:23:05.933Z,98003.81
2022-10-17T07:25:36.507Z,97999.66
2022-10-17T07:28:10.897Z,98010.47
2022-10-17T07:30:40.183Z,98008.31
2022-10-17T07:33:12.976Z,98006.63
2022-10-17T07:35:41.954Z,98007.50
2022-10-17T07:38:10.498Z,98004.84
2022-10-17T07:40:38.852Z,98003.97
2022-10-17T07:43:07.419Z,98004.31
2022-10-17T07:45:37.318Z,98009.09
2022-10-17T07:48:06.046Z,98004.94
2022-10-17T07:50:35.217Z,98004.56
2022-10-17T07:53:03.669Z,98000.56
2022-10-17T07:55:31.909Z,98009.13
2022-10-17T07:58:01.234Z,98011.84
2022-10-17T08:00:29.474Z,98014.88
2022-10-17T08:02:59.177Z,98012.94
2022-10-17T08:05:27.441Z,98012.97
2022-10-17T08:07:56.097Z,98011.53
2022-10-17T08:10:27.735Z,98006.84
2022-10-17T08:12:56.201Z,98010.38
2022-10-17T08:15:27.934Z,98014.34
2022-10-17T08:18:01.038Z,98014.25
2022-10-17T08:20:29.145Z,98013.50
2022-10-17T08:22:57.279Z,98014.84
2022-10-17T08:25:25.548Z,98012.63
2022-10-17T08:27:53.651Z,98020.56
2022-10-17T08:30:22.158Z,98020.09
2022-10-17T08:32:50.680Z,98023.97
2022-10-17T08:35:21.925Z,98021.00
2022-10-17T08:37:50.126Z,98027.34
2022-10-17T08:40:22.196Z,98028.44
2022-10-17T08:43:18.887Z,98010.13
2022-10-17T08:45:52.251Z,98013.75
2022-10-17T08:48:24.677Z,98007.88
2022-10-17T08:50:57.767Z,98016.13
2022-10-17T08:53:32.203Z,98013.19
2022-10-17T08:56:11.867Z,98020.72
2022-10-17T08:58:40.617Z,98026.63
2022-10-17T09:01:15.642Z,98021.75
2022-10-17T09:03:56.866Z,98019.91
2022-10-17T09:06:30.199Z,98021.31
2022-10-17T09:09:19.597Z,98019.81
2022-10-17T09:12:02.942Z,98012.44
2022-10-17T09:15:09.532Z,98009.25
2022-10-17T09:17:49.899Z,98012.25
2022-10-17T09:20:22.679Z,98007.94
2022-10-17T09:22:58.498Z,97997.69
2022-10-17T09:25:27.857Z,97991.41
2022-10-17T09:28:00.618Z,97998.16
2022-10-17T09:30:45.166Z,97996.88
2022-10-17T09:33:28.275Z,98003.22
2022-10-17T09:36:07.879Z,98000.53
2022-10-17T09:38:43.100Z,97996.00
2022-10-17T09:41:43.777Z,97998.25
2022-10-17T09:44:30.746Z,97999.25
2022-10-17T09:47:21.993Z,98008.16
2022-10-17T09:49:50.754Z,97999.25
2022-10-17T09:52:21.407Z,98001.38
2022-10-17T09:54:54.363Z,98010.91
2022-10-17T09:57:23.721Z,98013.00
2022-10-17T10:00:00.518Z,98017.13
2022-10-17T10:02:30.864Z,98009.13
2022-10-17T10:05:04.291Z,98011.22
2022-10-17T10:07:35.415Z,98012.84
2022-10-17T10:10:07.652Z,98009.94
2022-10-17T10:12:37.521Z,98027.50
2022-10-17T10:15:34.156Z,98015.44
2022-10-17T10:18:02.897Z,98027.03
2022-10-17T10:20:35.220Z,98017.47
2022-10-17T10:23:08.868Z,98014.91
2022-10-17T10:25:38.670Z,98014.38
2022-10-17T10:28:12.194Z,98014.44
2022-10-17T10:30:40.382Z,98010.69
2022-10-17T10:33:12.965Z,98004.88
2022-10-17T10:35:41.248Z,98007.16
2022-10-17T10:38:12.706Z,98007.94
2022-10-17T10:40:49.090Z,98005.84
2022-10-17T10:43:28.564Z,98009.03
2022-10-17T10:45:57.203Z,98010.69
2022-10-17T10:48:27.442Z,97995.47
2022-10-17T10:51:00.158Z,97978.22
2022-10-17T10:53:38.816Z,97995.41
2022-10-17T10:56:14.579Z,98000.44
2022-10-17T10:58:54.239Z,97994.34
2022-10-17T11:01:30.455Z,97993.88
2022-10-17T11:04:17.266Z,98002.13
2022-10-17T11:06:47.252Z,97993.94
2022-10-17T11:09:29.952Z,97994.91
2022-10-17T11:12:08.308Z,98002.22
2022-10-17T11:14:44.483Z,97996.88
2022-10-17T11:17:21.644Z,98002.50
2022-10-17T11:19:58.160Z,98006.81
2022-10-17T11:22:31.144Z,98008.59
2022-10-17T11:25:02.088Z,98008.38
2022-10-17T11:27:32.984Z,97996.34
2022-10-17T11:30:01.484Z,98005.00
2022-10-17T11:32:36.213Z,98006.38
2022-10-17T11:35:08.478Z,97997.59
2022-10-17T11:37:45.984Z,97990.94
2022-10-17T11:40:24.477Z,97991.31
2022-10-17T11:42:59.865Z,97989.81
2022-10-17T11:45:32.180Z,97993.44
2022-10-17T11:48:05.815Z,97983.91
2022-10-17T11:53:28.440Z,97985.84
2022-10-17T11:56:01.270Z,97990.69
2022-10-17T11:58:38.545Z,97991.41
2022-10-17T12:01:17.570Z,97987.09
2022-10-17T12:04:02.676Z,97995.19
2022-10-17T12:06:44.585Z,97990.22
2022-10-17T12:09:22.031Z,97984.03
2022-10-17T12:11:54.870Z,97976.50
2022-10-17T12:14:42.300Z,97983.31
2022-10-17T12:17:33.088Z,97985.50
2022-10-17T12:20:28.425Z,97977.47
2022-10-17T12:22:58.420Z,97977.50
2022-10-17T12:25:30.011Z,97970.56
2022-10-17T12:28:14.527Z,97971.78
2022-10-17T12:31:05.876Z,97966.34
2022-10-17T12:33:38.643Z,97974.00
2022-10-17T12:36:49.505Z,97966.41
2022-10-17T12:39:51.854Z,97960.72
2022-10-17T12:42:49.709Z,97970.81
2022-10-17T12:45:49.338Z,97969.72
2022-10-17T12:49:02.814Z,97968.09
2022-10-17T12:52:09.798Z,97970.88
2022-10-17T12:54:47.511Z,97963.25
2022-10-17T12:57:26.256Z,97973.28
2022-10-17T12:59:57.898Z,97964.41
2022-10-17T13:02:30.827Z,97954.66
2022-10-17T13:05:07.840Z,97962.47
2022-10-17T13:07:38.557Z,97950.09
2022-10-17T13:10:07.763Z,97951.75
2022-10-17T13:12:41.130Z,97956.22
2022-10-17T13:15:17.825Z,97952.00
2022-10-17T13:17:46.419Z,97948.25
2022-10-17T13:20:25.551Z,97942.03
2022-10-17T13:22:59.524Z,97946.19
2022-10-17T13:25:29.317Z,97942.09
2022-10-17T13:28:13.719Z,97950.91
2022-10-17T13:30:49.828Z,97951.94
2022-10-17T13:33:33.402Z,97941.19
2022-10-17T13:36:05.472Z,97939.66
2022-10-17T13:38:40.289Z,97937.22
2022-10-17T13:44:05.767Z,97931.38
2022-10-17T13:46:38.399Z,97928.97
2022-10-17T13:49:23.232Z,97922.19
2022-10-17T13:51:55.616Z,97926.97
2022-10-17T13:54:36.616Z,97922.63
2022-10-17T13:57:06.714Z,97922.38
2022-10-17T13:59:39.693Z,97925.59
2022-10-17T14:02:14.901Z,97917.97
2022-10-17T14:05:15.174Z,97925.34
2022-10-17T14:08:05.487Z,97916.25
2022-10-17T14:10:34.993Z,97916.56
2022-10-17T14:13:04.964Z,97921.56
2022-10-17T14:15:35.843Z,97921.44
2022-10-17T14:18:08.255Z,97922.69
2022-10-17T14:23:32.568Z,97913.28
2022-10-17T14:26:23.537Z,97915.22
2022-10-17T14:29:04.136Z,97917.59
2022-10-17T14:31:34.189Z,97910.84
2022-10-17T14:34:04.035Z,97910.84
2022-10-17T14:36:39.155Z,97916.13
2022-10-17T14:39:14.128Z,97914.94
2022-10-17T14:41:45.692Z,97910.25
2022-10-17T14:44:24.519Z,97909.28
2022-10-17T14:46:56.693Z,97911.53
2022-10-17T14:49:33.679Z,97917.94
2022-10-17T14:52:26.723Z,97908.75
2022-10-17T14:54:54.858Z,97914.81
2022-10-17T14:57:29.663Z,97911.72
2022-10-17T14:59:58.517Z,97924.31
2022-10-17T15:02:28.671Z,97918.81
2022-10-17T15:04:57.063Z,97927.72
2022-10-17T15:07:25.335Z,97916.09
2022-10-17T15:09:54.653Z,97928.78
2022-10-17T15:12:25.968Z,97921.06
2022-10-17T15:14:55.148Z,97926.09
2022-10-17T15:17:26.138Z,97927.09
2022-10-17T15:19:54.522Z,97922.50
2022-10-17T15:22:22.856Z,97928.81
2022-10-17T15:24:51.328Z,97919.19
2022-10-17T15:27:22.224Z,97926.09
2022-10-17T15:29:53.096Z,97933.94
2022-10-17T15:32:21.728Z,97925.25
2022-10-17T15:34:50.115Z,97933.19
2022-10-17T15:37:22.281Z,97935.31
2022-10-17T15:39:54.132Z,97928.91
2022-10-17T15:42:23.712Z,97928.53
2022-10-17T15:44:53.429Z,97920.81
2022-10-17T15:47:26.537Z,97917.69
2022-10-17T15:49:55.367Z,97931.88
2022-10-17T15:52:24.577Z,97931.94
2022-10-17T15:54:53.198Z,97932.06
2022-10-17T15:57:25.467Z,97925.09
2022-10-17T15:59:56.538Z,97933.47
2022-10-17T16:02:25.434Z,97933.00
2022-10-17T16:04:54.228Z,97926.78
2022-10-17T16:07:22.786Z,97934.63
2022-10-17T16:09:51.165Z,97930.78
2022-10-17T16:12:31.187Z,97945.34
2022-10-17T16:15:01.243Z,97943.00
2022-10-17T16:17:29.949Z,97944.22
2022-10-17T16:19:58.253Z,97955.47
2022-10-17T16:22:32.552Z,97949.59
2022-10-17T16:25:07.920Z,97956.88
2022-10-17T16:27:36.483Z,97960.16
2022-10-17T16:30:07.728Z,97968.75
2022-10-17T16:32:36.022Z,97975.63
2022-10-17T16:35:04.135Z,97967.03
2022-10-17T16:37:32.547Z,97960.53
2022-10-17T16:40:00.853Z,97959.78
2022-10-17T16:42:29.163Z,97953.56
2022-10-17T16:44:57.638Z,97955.16
2022-10-17T16:47:27.080Z,97970.25
2022-10-17T16:49:55.581Z,97977.31
2022-10-17T16:52:23.511Z,97973.66
2022-10-17T16:54:51.571Z,97975.53
2022-10-17T16:57:19.535Z,97970.97
2022-10-17T16:59:47.855Z,97975.25
2022-10-17T17:02:18.900Z,97973.25
2022-10-17T17:04:50.761Z,97979.50
2022-10-17T17:07:20.008Z,97986.81
2022-10-17T17:09:48.962Z,97993.84
2022-10-17T17:12:17.229Z,97991.75
2022-10-17T17:14:45.231Z,97986.38
2022-10-17T17:17:19.684Z,97983.06
2022-10-17T17:19:59.911Z,97988.34
2022-10-17T17:22:27.919Z,97988.69
2022-10-17T17:24:55.844Z,97991.63
2022-10-17T17:27:25.204Z,97999.41
2022-10-17T17:29:53.253Z,97992.69
2022-10-17T17:32:21.706Z,97999.78
2022-10-17T17:34:49.675Z,98006.66
2022-10-17T17:37:20.816Z,98005.78
2022-10-17T17:39:48.983Z,98006.78
2022-10-17T17:42:16.953Z,98007.34
2022-10-17T17:44:45.062Z,98006.72
2022-10-17T17:47:12.955Z,98002.13
2022-10-17T17:49:40.947Z,97996.94
2022-10-17T17:52:09.001Z,97991.63
2022-10-17T17:54:40.900Z,98000.09
2022-10-17T17:57:09.256Z,97996.41
2022-10-17T17:59:38.649Z,98001.94
2022-10-17T18:02:07.003Z,98006.78
2022-10-17T18:04:35.169Z,98007.72
2022-10-17T18:07:03.155Z,98012.88
2022-10-17T18:09:31.141Z,98014.66
2022-10-17T18:12:00.584Z,98014.97
2022-10-17T18:14:28.697Z,98017.63
2022-10-17T18:16:56.658Z,98016.47
2022-10-17T18:19:24.801Z,98022.13
2022-10-17T18:21:52.826Z,98022.44
2022-10-17T18:24:20.984Z,98023.03
2022-10-17T18:26:49.967Z,98022.84
2022-10-17T18:29:19.795Z,98013.78
2022-10-17T18:31:48.238Z,98012.44
2022-10-17T18:34:16.693Z,98018.97
2022-10-17T18:36:44.931Z,98009.88
2022-10-17T18:39:12.948Z,98008.00
2022-10-17T18:41:40.940Z,98016.44
2022-10-17T18:44:08.881Z,98020.94
2022-10-17T18:46:41.017Z,98021.00
2022-10-17T18:49:09.709Z,98019.47
2022-10-17T18:51:37.927Z,98012.38
2022-10-17T18:54:06.031Z,98008.78
2022-10-17T18:56:34.111Z,98003.94
2022-10-17T18:59:02.334Z,98001.97
2022-10-17T19:01:30.757Z,98001.44
2022-10-17T19:04:00.528Z,98009.66
2022-10-17T19:06:31.860Z,98000.19
2022-10-17T19:09:00.830Z,98004.69
2022-10-17T19:11:30.200Z,97996.88
2022-10-17T19:13:59.892Z,98002.97
2022-10-17T19:16:29.700Z,98009.09
2022-10-17T19:19:01.638Z,98022.66
2022-10-17T19:21:29.792Z,98007.44
2022-10-17T19:23:59.344Z,98011.88
2022-10-17T19:26:29.081Z,98018.31
2022-10-17T19:28:57.474Z,98022.06
2022-10-17T19:31:27.977Z,98025.19
2022-10-17T19:33:57.362Z,98026.03
2022-10-17T19:36:32.438Z,98029.00
2022-10-17T19:39:03.464Z,98034.44
2022-10-17T19:41:31.553Z,98033.72
2022-10-17T19:44:00.628Z,98031.16
2022-10-17T19:46:29.739Z,98031.91
2022-10-17T19:48:57.887Z,98033.34
2022-10-17T19:51:28.559Z,98032.31
2022-10-17T19:54:00.248Z,98040.16
2022-10-17T19:56:30.292Z,98047.72
2022-10-17T19:58:59.184Z,98048.06
2022-10-17T20:01:30.792Z,98042.19
2022-10-17T20:03:59.051Z,98039.91
2022-10-17T20:06:29.004Z,98042.34
2022-10-17T20:08:57.396Z,98042.09
2022-10-17T20:11:28.717Z,98040.75
2022-10-17T20:13:57.463Z,98032.88
2022-10-17T20:16:27.398Z,98040.53
2022-10-17T20:18:57.028Z,98044.91
2022-10-17T20:21:31.573Z,98049.84
2022-10-17T20:24:00.519Z,98048.31
2022-10-17T20:26:38.665Z,98048.03
2022-10-17T20:29:11.595Z,98059.19
2022-10-17T20:31:41.286Z,98068.31
2022-10-17T20:34:12.560Z,98067.03
2022-10-17T20:36:42.594Z,98065.31
2022-10-17T20:39:12.660Z,98066.50
2022-10-17T20:41:41.245Z,98061.22
2022-10-17T20:44:09.266Z,98067.91
2022-10-17T20:46:41.598Z,98059.72
2022-10-17T20:49:16.232Z,98061.72
2022-10-17T20:51:45.696Z,98078.41
2022-10-17T20:54:13.813Z,98070.38
2022-10-17T20:56:42.022Z,98077.84
2022-10-17T20:59:13.744Z,98074.94
2022-10-17T21:01:41.825Z,98073.63
2022-10-17T21:04:40.455Z,98068.88
2022-10-17T21:07:00.168Z,98068.06
2022-10-17T21:09:28.227Z,98075.94
2022-10-17T21:11:56.895Z,98072.91
2022-10-17T21:14:26.067Z,98075.06
2022-10-17T21:16:54.080Z,98076.34
2022-10-17T21:19:22.803Z,98068.88
2022-10-17T21:21:51.320Z,98074.28
2022-10-17T21:24:20.971Z,98078.72
2022-10-17T21:26:55.205Z,98073.94
2022-10-17T21:29:24.405Z,98071.94
2022-10-17T21:31:53.928Z,98075.81
2022-10-17T21:34:24.521Z,98067.00
2022-10-17T21:36:53.699Z,98070.78
2022-10-17T21:39:24.789Z,98069.78
2022-10-17T21:41:53.592Z,98067.78
2022-10-17T21:44:25.625Z,98063.75
2022-10-17T21:46:55.475Z,98064.84
2022-10-17T21:49:25.230Z,98073.50
2022-10-17T21:51:54.561Z,98064.34
2022-10-17T21:54:24.483Z,98062.88
2022-10-17T21:56:52.998Z,98068.38
2022-10-17T21:59:20.982Z,98065.59
2022-10-17T22:01:49.066Z,98066.75
2022-10-17T22:04:19.157Z,98050.88
2022-10-17T22:06:51.076Z,98062.94
2022-10-17T22:09:21.179Z,98068.66
2022-10-17T22:11:52.137Z,98068.75
2022-10-17T22:14:21.915Z,98072.28
2022-10-17T22:16:50.576Z,98067.78
2022-10-17T22:19:22.179Z,98071.72
2022-10-17T22:21:50.276Z,98068.22
2022-10-17T22:26:54.274Z,98079.44
2022-10-17T22:29:22.399Z,98078.06
2022-10-17T22:31:50.633Z,98075.88
2022-10-17T22:34:19.679Z,98066.50
2022-10-17T22:36:49.074Z,98064.84
2022-10-17T22:39:17.476Z,98062.34
2022-10-17T22:41:45.731Z,98063.59
2022-10-17T22:44:15.027Z,98068.56
2022-10-17T22:46:42.985Z,98069.91
2022-10-17T22:49:11.104Z,98073.81
2022-10-17T22:51:39.053Z,98077.03
2022-10-17T22:54:07.490Z,98074.81
2022-10-17T22:56:35.769Z,98073.44
2022-10-17T22:59:03.680Z,98069.97
2022-10-17T23:01:33.187Z,98062.84
2022-10-17T23:04:01.361Z,98062.25
2022-10-17T23:06:29.392Z,98067.53
2022-10-17T23:08:57.307Z,98065.88
2022-10-17T23:11:25.271Z,98066.94
2022-10-17T23:13:53.394Z,98060.19
2022-10-17T23:16:21.371Z,98063.38
2022-10-17T23:18:51.023Z,98056.44
2022-10-17T23:21:19.073Z,98053.06
2022-10-17T23:23:47.141Z,98054.84
2022-10-17T23:26:15.756Z,98058.72
2022-10-17T23:28:44.257Z,98047.97
2022-10-17T23:31:15.484Z,98054.91
2022-10-17T23:33:45.322Z,98052.28
2022-10-17T23:36:16.083Z,98049.47
2022-10-17T23:38:46.184Z,98048.28
2022-10-17T23:41:14.887Z,98040.25
2022-10-17T23:43:43.079Z,98050.72
2022-10-17T23:46:11.452Z,98049.13
2022-10-17T23:48:40.114Z,98052.16
2022-10-17T23:51:08.774Z,98048.94
2022-10-17T23:53:38.891Z,98058.88
2022-10-17T23:56:08.133Z,98057.75
2022-10-17T23:58:36.333Z,98054.03
